createdAt,value
2023-02-09T00:01:16.694Z,23.48
2023-02-09T00:03:19.314Z,22.23
2023-02-09T00:05:21.910Z,23.48
2023-02-09T00:07:24.597Z,21.67
2023-02-09T00:09:27.163Z,22.10
2023-02-09T00:11:51.504Z,21.95
2023-02-09T00:13:54.018Z,22.42
2023-02-09T00:16:01.477Z,21.52
2023-02-09T00:18:04.157Z,22.77
2023-02-09T00:20:08.271Z,20.20
2023-02-09T00:22:10.831Z,21.50
2023-02-09T00:24:14.045Z,20.75
2023-02-09T00:26:16.704Z,22.48
2023-02-09T00:28:19.685Z,20.63
2023-02-09T00:30:22.549Z,22.35
2023-02-09T00:32:26.487Z,20.83
2023-02-09T00:34:29.040Z,21.38
2023-02-09T00:36:31.942Z,20.40
2023-02-09T00:38:35.344Z,19.05
2023-02-09T00:40:38.217Z,19.95
2023-02-09T00:42:40.759Z,19.65
2023-02-09T00:44:43.277Z,21.58
2023-02-09T00:46:45.870Z,19.73
2023-02-09T00:48:49.741Z,21.27
2023-02-09T00:50:53.073Z,20.30
2023-02-09T00:52:56.060Z,19.88
2023-02-09T00:54:58.599Z,21.00
2023-02-09T00:57:05.228Z,20.77
2023-02-09T00:59:07.876Z,19.67
2023-02-09T01:01:13.307Z,22.23
2023-02-09T01:03:15.887Z,21.73
2023-02-09T01:05:20.023Z,20.33
2023-02-09T01:07:22.650Z,20.90
2023-02-09T01:09:25.909Z,20.38
2023-02-09T01:11:29.832Z,20.80
2023-02-09T01:13:32.405Z,21.08
2023-02-09T01:15:35.057Z,20.85
2023-02-09T01:17:38.468Z,19.90
2023-02-09T01:19:41.051Z,20.13
2023-02-09T01:21:47.728Z,20.50
2023-02-09T01:23:50.797Z,21.98
2023-02-09T01:26:02.345Z,20.75
2023-02-09T01:28:04.967Z,21.00
2023-02-09T01:30:08.478Z,21.60
2023-02-09T01:32:11.154Z,22.42
2023-02-09T01:34:15.915Z,21.52
2023-02-09T01:36:18.570Z,22.33
2023-02-09T01:38:22.484Z,21.13
2023-02-09T01:40:25.263Z,20.85
2023-02-09T01:42:28.016Z,21.73
2023-02-09T01:45:13.498Z,22.08
2023-02-09T01:47:17.304Z,22.13
2023-02-09T01:49:22.537Z,22.60
2023-02-09T01:51:26.534Z,20.80
2023-02-09T01:53:30.529Z,23.17
2023-02-09T01:55:37.934Z,22.30
2023-02-09T01:57:45.284Z,23.00
2023-02-09T01:59:53.001Z,20.90
2023-02-09T02:01:55.754Z,19.80
2023-02-09T02:03:58.301Z,21.90
2023-02-09T02:06:05.949Z,22.30
2023-02-09T02:08:13.279Z,20.85
2023-02-09T02:10:17.552Z,21.52
2023-02-09T02:12:20.554Z,21.55
2023-02-09T02:14:30.867Z,21.83
2023-02-09T02:16:44.791Z,21.45
2023-02-09T02:19:02.709Z,20.17
2023-02-09T02:21:51.247Z,20.70
2023-02-09T02:24:08.523Z,21.50
2023-02-09T02:26:35.530Z,21.08
2023-02-09T02:28:46.033Z,21.65
2023-02-09T02:31:05.482Z,21.23
2023-02-09T02:33:20.946Z,21.58
2023-02-09T02:35:34.420Z,21.75
2023-02-09T02:37:49.733Z,22.23
2023-02-09T02:40:00.179Z,21.73
2023-02-09T02:42:27.886Z,21.17
2023-02-09T02:44:32.942Z,22.17
2023-02-09T02:46:41.993Z,20.77
2023-02-09T02:48:53.849Z,21.42
2023-02-09T02:51:00.954Z,20.55
2023-02-09T02:53:07.589Z,20.55
2023-02-09T02:55:14.946Z,20.73
2023-02-09T02:57:21.508Z,21.63
2023-02-09T02:59:29.244Z,22.20
2023-02-09T03:01:36.101Z,20.95
2023-02-09T03:03:42.011Z,21.77
2023-02-09T03:05:46.643Z,22.02
2023-02-09T03:07:49.376Z,21.23
2023-02-09T03:09:53.518Z,22.75
2023-02-09T03:11:59.742Z,21.98
2023-02-09T03:14:22.225Z,22.10
2023-02-09T03:16:32.974Z,21.48
2023-02-09T03:18:44.677Z,22.10
2023-02-09T03:22:58.296Z,21.58
2023-02-09T03:25:06.270Z,20.98
2023-02-09T03:27:15.550Z,22.05
2023-02-09T03:29:20.839Z,22.23
2023-02-09T03:31:24.159Z,23.05
2023-02-09T03:33:29.486Z,22.98
2023-02-09T03:35:38.019Z,21.85
2023-02-09T03:37:41.960Z,21.50
2023-02-09T03:39:44.563Z,22.23
2023-02-09T03:41:47.173Z,21.05
2023-02-09T03:44:07.347Z,22.77
2023-02-09T03:46:10.406Z,22.58
2023-02-09T03:48:15.861Z,22.02
2023-02-09T03:50:18.817Z,22.58
2023-02-09T03:52:21.433Z,23.70
2023-02-09T03:54:25.324Z,21.40
2023-02-09T03:56:45.587Z,21.98
2023-02-09T03:58:48.173Z,21.80
2023-02-09T04:00:50.786Z,22.42
2023-02-09T04:02:53.419Z,22.92
2023-02-09T04:04:56.101Z,22.45
2023-02-09T04:06:58.855Z,22.38
2023-02-09T04:09:02.748Z,22.67
2023-02-09T04:11:06.667Z,22.50
2023-02-09T04:13:09.259Z,22.10
2023-02-09T04:15:11.899Z,20.88
2023-02-09T04:17:14.498Z,22.48
2023-02-09T04:19:17.751Z,22.83
2023-02-09T04:21:20.379Z,21.58
2023-02-09T04:23:22.915Z,22.33
2023-02-09T04:25:25.496Z,22.88
2023-02-09T04:27:29.457Z,23.02
2023-02-09T04:29:32.206Z,22.25
2023-02-09T04:31:35.962Z,22.55
2023-02-09T04:33:39.048Z,22.17
2023-02-09T04:35:43.874Z,23.80
2023-02-09T04:37:46.478Z,24.15
2023-02-09T04:39:49.033Z,22.70
2023-02-09T04:41:51.557Z,21.90
2023-02-09T04:43:55.435Z,21.80
2023-02-09T04:45:58.252Z,22.23
2023-02-09T04:48:00.853Z,22.58
2023-02-09T04:50:03.430Z,22.05
2023-02-09T04:52:05.980Z,24.00
2023-02-09T04:54:08.511Z,24.05
2023-02-09T04:56:15.365Z,24.52
2023-02-09T04:58:38.439Z,23.02
2023-02-09T05:00:42.396Z,21.23
2023-02-09T05:02:44.983Z,22.90
2023-02-09T05:04:47.624Z,24.95
2023-02-09T05:06:50.343Z,24.20
2023-02-09T05:08:52.961Z,24.48
2023-02-09T05:10:56.307Z,24.60
2023-02-09T05:12:58.937Z,25.75
2023-02-09T05:15:01.575Z,23.38
2023-02-09T05:17:05.596Z,26.13
2023-02-09T05:19:08.166Z,22.95
2023-02-09T05:21:11.051Z,24.90
2023-02-09T05:23:14.603Z,24.05
2023-02-09T05:25:17.299Z,24.90
2023-02-09T05:27:20.155Z,22.92
2023-02-09T05:29:22.770Z,23.70
2023-02-09T05:31:25.656Z,23.23
2023-02-09T05:33:29.841Z,24.85
2023-02-09T05:35:32.417Z,23.67
2023-02-09T05:37:35.209Z,23.27
2023-02-09T05:39:37.811Z,23.42
2023-02-09T05:41:54.546Z,23.63
2023-02-09T05:43:57.184Z,23.13
2023-02-09T05:45:59.793Z,23.63
2023-02-09T05:48:02.415Z,22.88
2023-02-09T05:50:06.987Z,23.58
2023-02-09T05:52:10.446Z,24.48
2023-02-09T05:54:13.044Z,24.38
2023-02-09T05:56:15.591Z,25.58
2023-02-09T05:58:18.149Z,24.38
2023-02-09T06:00:21.955Z,23.70
2023-02-09T06:02:24.606Z,23.65
2023-02-09T06:04:28.346Z,23.55
2023-02-09T06:06:33.477Z,24.65
2023-02-09T06:08:36.043Z,25.23
2023-02-09T06:10:38.644Z,25.73
2023-02-09T06:12:41.466Z,25.92
2023-02-09T06:14:44.042Z,25.70
2023-02-09T06:16:47.137Z,25.65
2023-02-09T06:18:49.758Z,28.15
2023-02-09T06:20:53.875Z,26.90
2023-02-09T06:22:57.991Z,26.45
2023-02-09T06:25:00.659Z,24.98
2023-02-09T06:27:03.201Z,25.65
2023-02-09T06:29:05.903Z,24.70
2023-02-09T06:31:09.614Z,25.05
2023-02-09T06:33:12.214Z,24.58
2023-02-09T06:35:14.839Z,25.02
2023-02-09T06:37:17.421Z,24.60
2023-02-09T06:39:21.322Z,24.33
2023-02-09T06:41:23.916Z,23.20
2023-02-09T06:43:26.523Z,25.27
2023-02-09T06:45:29.170Z,24.73
2023-02-09T06:47:31.807Z,25.67
2023-02-09T06:49:34.388Z,24.45
2023-02-09T06:51:37.176Z,25.63
2023-02-09T06:53:41.089Z,26.40
2023-02-09T06:55:45.094Z,25.17
2023-02-09T06:57:47.689Z,26.40
2023-02-09T06:59:50.329Z,27.77
2023-02-09T07:01:54.976Z,28.00
2023-02-09T07:03:57.771Z,26.48
2023-02-09T07:06:05.075Z,26.67
2023-02-09T07:08:07.740Z,27.45
2023-02-09T07:10:11.541Z,26.45
2023-02-09T07:12:15.464Z,25.65
2023-02-09T07:14:18.062Z,27.88
2023-02-09T07:16:20.738Z,25.42
2023-02-09T07:18:23.448Z,26.10
2023-02-09T07:20:26.140Z,27.00
2023-02-09T07:22:28.788Z,27.95
2023-02-09T07:24:31.430Z,26.95
2023-02-09T07:26:34.092Z,26.55
2023-02-09T07:28:38.432Z,26.27
2023-02-09T07:30:42.069Z,25.92
2023-02-09T07:32:44.633Z,28.08
2023-02-09T07:34:47.209Z,26.80
2023-02-09T07:36:49.910Z,27.13
2023-02-09T07:38:52.693Z,26.42
2023-02-09T07:40:55.555Z,26.77
2023-02-09T07:42:58.107Z,25.02
2023-02-09T07:45:02.021Z,25.83
2023-02-09T07:47:04.672Z,26.52
2023-02-09T07:49:07.254Z,26.55
2023-02-09T07:51:14.212Z,27.83
2023-02-09T07:53:20.052Z,26.90
2023-02-09T07:55:22.750Z,27.00
2023-02-09T07:57:25.319Z,27.42
2023-02-09T07:59:27.954Z,28.08
2023-02-09T08:01:31.954Z,26.65
2023-02-09T08:03:36.502Z,27.00
2023-02-09T08:05:44.697Z,27.95
2023-02-09T08:07:47.535Z,28.48
2023-02-09T08:09:52.911Z,28.50
2023-02-09T08:11:58.932Z,28.83
2023-02-09T08:14:05.868Z,28.48
2023-02-09T08:16:11.304Z,28.30
2023-02-09T08:18:19.162Z,27.88
2023-02-09T08:20:28.602Z,28.27
2023-02-09T08:22:35.076Z,29.58
2023-02-09T08:24:37.948Z,28.20
2023-02-09T08:26:41.026Z,28.38
2023-02-09T08:28:45.381Z,27.58
2023-02-09T08:30:50.282Z,29.13
2023-02-09T08:32:52.878Z,29.15
2023-02-09T08:34:56.758Z,27.33
2023-02-09T08:36:59.377Z,29.08
2023-02-09T08:39:03.148Z,29.85
2023-02-09T08:41:07.092Z,27.92
2023-02-09T08:43:09.659Z,29.10
2023-02-09T08:45:12.247Z,29.13
2023-02-09T08:47:14.794Z,29.40
2023-02-09T08:49:17.346Z,28.50
2023-02-09T08:51:21.522Z,28.85
2023-02-09T08:53:24.140Z,28.98
2023-02-09T08:55:26.720Z,28.85
2023-02-09T08:57:42.705Z,32.47
2023-02-09T08:59:46.316Z,29.65
2023-02-09T09:01:49.047Z,30.08
2023-02-09T09:03:54.115Z,31.27
2023-02-09T09:05:57.978Z,30.25
2023-02-09T09:08:01.966Z,32.65
2023-02-09T09:10:04.845Z,31.42
2023-02-09T09:12:07.442Z,31.63
2023-02-09T09:14:10.047Z,31.67
2023-02-09T09:16:15.541Z,33.40
2023-02-09T09:18:18.221Z,31.38
2023-02-09T09:20:20.864Z,31.17
2023-02-09T09:22:23.909Z,31.48
2023-02-09T09:24:29.004Z,32.28
2023-02-09T09:26:31.607Z,32.00
2023-02-09T09:28:34.216Z,31.70
2023-02-09T09:30:37.461Z,33.33
2023-02-09T09:32:40.078Z,32.67
2023-02-09T09:34:44.217Z,32.58
2023-02-09T09:36:46.785Z,33.28
2023-02-09T09:38:49.426Z,31.20
2023-02-09T09:40:53.772Z,32.13
2023-02-09T09:42:59.220Z,32.95
2023-02-09T09:45:02.581Z,31.30
2023-02-09T09:47:11.383Z,32.13
2023-02-09T09:49:24.803Z,32.72
2023-02-09T09:51:37.729Z,31.52
2023-02-09T09:53:43.275Z,32.17
2023-02-09T09:55:47.408Z,31.67
2023-02-09T09:57:53.781Z,29.83
2023-02-09T09:59:57.842Z,32.20
2023-02-09T10:02:04.316Z,30.98
2023-02-09T10:04:13.753Z,32.40
2023-02-09T10:06:18.747Z,30.23
2023-02-09T10:08:28.706Z,32.55
2023-02-09T10:10:41.987Z,33.13
2023-02-09T10:12:49.500Z,32.28
2023-02-09T10:14:53.440Z,32.97
2023-02-09T10:16:56.257Z,33.30
2023-02-09T10:19:01.001Z,32.30
2023-02-09T10:21:07.597Z,31.77
2023-02-09T10:23:17.364Z,32.53
2023-02-09T10:25:40.293Z,33.25
2023-02-09T10:27:47.209Z,31.88
2023-02-09T10:29:49.756Z,32.10
2023-02-09T10:32:00.736Z,34.38
2023-02-09T10:34:11.508Z,32.92
2023-02-09T10:36:25.823Z,31.30
2023-02-09T10:38:33.572Z,31.35
2023-02-09T10:40:41.417Z,33.00
2023-02-09T10:42:54.986Z,32.20
2023-02-09T10:45:04.779Z,33.50
2023-02-09T10:47:27.150Z,31.90
2023-02-09T10:49:32.261Z,31.77
2023-02-09T10:51:35.044Z,31.42
2023-02-09T10:53:40.360Z,31.65
2023-02-09T10:55:43.358Z,32.10
2023-02-09T10:57:46.063Z,31.63
2023-02-09T10:59:52.669Z,32.20
2023-02-09T11:01:58.336Z,32.15
2023-02-09T11:04:04.463Z,32.42
2023-02-09T11:06:15.142Z,31.75
2023-02-09T11:08:20.480Z,31.27
2023-02-09T11:10:23.386Z,32.30
2023-02-09T11:12:28.493Z,32.53
2023-02-09T11:14:31.210Z,31.58
2023-02-09T11:17:04.165Z,31.08
2023-02-09T11:19:22.332Z,33.53
2023-02-09T11:21:36.540Z,30.70
2023-02-09T11:23:46.279Z,31.55
2023-02-09T11:25:58.188Z,31.38
2023-02-09T11:28:19.543Z,32.20
2023-02-09T11:30:42.876Z,31.95
2023-02-09T11:32:52.390Z,29.65
2023-02-09T11:35:05.005Z,31.23
2023-02-09T11:37:22.564Z,30.67
2023-02-09T11:39:38.349Z,29.80
2023-02-09T11:42:04.281Z,29.30
2023-02-09T11:44:08.580Z,29.92
2023-02-09T11:46:15.706Z,32.05
2023-02-09T11:48:25.834Z,30.15
2023-02-09T11:50:36.627Z,30.38
2023-02-09T11:52:49.156Z,29.58
2023-02-09T11:54:57.620Z,31.05
2023-02-09T11:57:03.900Z,30.33
2023-02-09T11:59:11.564Z,30.60
2023-02-09T12:01:29.006Z,30.08
2023-02-09T12:03:31.580Z,31.67
2023-02-09T12:05:35.731Z,29.95
2023-02-09T12:07:44.644Z,30.38
2023-02-09T12:09:55.779Z,29.42
2023-02-09T12:12:11.546Z,30.45
2023-02-09T12:14:46.301Z,29.67
2023-02-09T12:16:58.059Z,29.15
2023-02-09T12:21:06.640Z,29.42
2023-02-09T12:23:19.642Z,29.05
2023-02-09T12:25:50.892Z,27.02
2023-02-09T12:28:14.202Z,27.98
2023-02-09T12:30:59.241Z,29.73
2023-02-09T12:33:17.387Z,28.08
2023-02-09T12:35:29.300Z,27.02
2023-02-09T12:37:33.264Z,26.23
2023-02-09T12:39:35.867Z,25.77
2023-02-09T12:42:26.961Z,26.17
2023-02-09T12:44:40.459Z,25.77
2023-02-09T12:46:53.431Z,25.23
2023-02-09T12:49:21.486Z,25.40
2023-02-09T12:51:56.029Z,25.30
2023-02-09T12:53:59.915Z,24.08
2023-02-09T12:56:23.143Z,24.23
2023-02-09T12:58:36.823Z,24.50
2023-02-09T13:00:52.680Z,25.63
2023-02-09T13:02:57.552Z,26.23
2023-02-09T13:05:05.231Z,26.63
2023-02-09T13:07:19.168Z,26.85
2023-02-09T13:09:29.003Z,26.08
2023-02-09T13:11:44.131Z,25.90
2023-02-09T13:13:50.597Z,24.73
2023-02-09T13:16:09.697Z,24.50
2023-02-09T13:18:21.205Z,23.42
2023-02-09T13:20:42.820Z,24.27
2023-02-09T13:22:58.156Z,22.35
2023-02-09T13:25:14.117Z,21.92
2023-02-09T13:27:22.800Z,23.33
2023-02-09T13:29:27.310Z,21.88
2023-02-09T13:31:36.893Z,22.67
2023-02-09T13:33:50.208Z,22.65
2023-02-09T13:36:07.153Z,21.70
2023-02-09T13:38:17.172Z,21.67
2023-02-09T13:40:25.168Z,20.30
2023-02-09T13:42:30.441Z,21.92
2023-02-09T13:44:34.862Z,20.80
2023-02-09T13:46:39.388Z,21.15
2023-02-09T13:48:41.996Z,22.02
2023-02-09T13:50:48.587Z,21.80
2023-02-09T13:52:51.823Z,21.08
2023-02-09T13:54:54.912Z,21.52
2023-02-09T13:57:01.676Z,21.55
2023-02-09T13:59:04.917Z,21.67
2023-02-09T14:01:10.117Z,19.80
2023-02-09T14:03:17.528Z,22.08
2023-02-09T14:05:29.730Z,20.45
2023-02-09T14:07:36.522Z,20.98
2023-02-09T14:09:44.376Z,21.13
2023-02-09T14:11:52.958Z,20.50
2023-02-09T14:14:02.294Z,21.02
2023-02-09T14:16:06.808Z,21.48
2023-02-09T14:18:31.503Z,21.10
2023-02-09T14:20:34.128Z,20.30
2023-02-09T14:22:38.667Z,20.50
2023-02-09T14:24:43.807Z,20.88
2023-02-09T14:26:50.064Z,20.60
2023-02-09T14:29:04.491Z,22.27
2023-02-09T14:31:19.714Z,20.38
2023-02-09T14:33:25.204Z,20.52
2023-02-09T14:35:30.229Z,20.63
2023-02-09T14:37:32.777Z,20.42
2023-02-09T14:39:35.333Z,19.05
2023-02-09T14:41:38.058Z,19.70
2023-02-09T14:43:40.636Z,19.05
2023-02-09T14:45:46.064Z,19.42
2023-02-09T14:47:50.125Z,19.92
2023-02-09T14:49:52.679Z,18.83
2023-02-09T14:52:06.185Z,21.15
2023-02-09T14:54:19.762Z,21.02
2023-02-09T14:56:28.459Z,20.65
2023-02-09T14:58:33.478Z,20.50
2023-02-09T15:00:36.047Z,20.15
2023-02-09T15:02:38.783Z,20.17
2023-02-09T15:04:42.715Z,20.35
2023-02-09T15:06:48.039Z,20.48
2023-02-09T15:08:50.598Z,20.90
2023-02-09T15:10:56.020Z,21.02
2023-02-09T15:12:59.502Z,21.60
2023-02-09T15:15:02.802Z,20.58
2023-02-09T15:17:13.226Z,20.75
2023-02-09T15:19:20.108Z,20.13
2023-02-09T15:21:23.996Z,19.45
2023-02-09T15:23:26.651Z,20.20
2023-02-09T15:25:30.203Z,18.42
2023-02-09T15:27:35.426Z,19.48
2023-02-09T15:29:37.985Z,20.38
2023-02-09T15:31:41.828Z,19.52
2023-02-09T15:33:45.056Z,18.90
2023-02-09T15:35:48.370Z,18.48
2023-02-09T15:37:54.544Z,19.35
2023-02-09T15:40:00.526Z,19.80
2023-02-09T15:42:20.574Z,21.08
2023-02-09T15:44:40.648Z,21.00
2023-02-09T15:47:02.681Z,21.35
2023-02-09T15:49:07.505Z,20.52
2023-02-09T15:51:10.781Z,20.73
2023-02-09T15:53:18.690Z,21.10
2023-02-09T15:55:23.085Z,23.02
2023-02-09T15:57:26.264Z,21.75
2023-02-09T15:59:29.098Z,20.80
2023-02-09T16:01:33.805Z,22.10
2023-02-09T16:03:36.521Z,22.67
2023-02-09T16:05:39.086Z,22.00
2023-02-09T16:07:41.770Z,21.27
2023-02-09T16:09:45.719Z,21.55
2023-02-09T16:11:48.442Z,21.88
2023-02-09T16:13:51.881Z,22.52
2023-02-09T16:15:58.274Z,21.67
2023-02-09T16:18:05.283Z,22.58
2023-02-09T16:20:11.570Z,22.25
2023-02-09T16:22:14.471Z,22.50
2023-02-09T16:24:22.526Z,22.27
2023-02-09T16:26:28.390Z,22.73
2023-02-09T16:28:31.117Z,24.38
2023-02-09T16:30:37.625Z,23.33
2023-02-09T16:32:40.196Z,22.40
2023-02-09T16:34:42.762Z,23.25
2023-02-09T16:36:47.689Z,24.88
2023-02-09T16:38:51.525Z,23.80
2023-02-09T16:40:56.034Z,24.40
2023-02-09T16:43:02.058Z,24.98
2023-02-09T16:45:05.809Z,23.98
2023-02-09T16:47:15.175Z,23.70
2023-02-09T16:49:31.879Z,24.23
2023-02-09T16:51:35.150Z,24.73
2023-02-09T16:53:40.665Z,25.20
2023-02-09T16:55:43.482Z,24.85
2023-02-09T16:57:46.142Z,25.08
2023-02-09T16:59:50.037Z,24.10
2023-02-09T17:01:52.669Z,24.40
2023-02-09T17:03:57.125Z,25.52
2023-02-09T17:06:01.442Z,23.88
2023-02-09T17:08:07.785Z,23.58
2023-02-09T17:10:21.121Z,23.75
2023-02-09T17:12:24.144Z,25.08
2023-02-09T17:14:26.750Z,25.13
2023-02-09T17:16:33.765Z,23.50
2023-02-09T17:18:41.375Z,24.48
2023-02-09T17:20:47.070Z,24.42
2023-02-09T17:22:51.707Z,25.33
2023-02-09T17:24:54.350Z,24.05
2023-02-09T17:26:56.903Z,25.35
2023-02-09T17:28:59.554Z,24.95
2023-02-09T17:31:04.452Z,35.67
2023-02-09T17:33:16.285Z,32.53
2023-02-09T17:37:44.039Z,29.33
2023-02-09T17:39:46.638Z,31.42
2023-02-09T17:41:50.001Z,29.63
2023-02-09T17:43:53.722Z,31.65
2023-02-09T17:45:56.679Z,30.42
2023-02-09T17:47:59.455Z,31.38
2023-02-09T17:50:03.361Z,28.38
2023-02-09T17:52:06.386Z,28.15
2023-02-09T17:54:14.038Z,32.65
2023-02-09T17:56:16.993Z,35.05
2023-02-09T17:58:20.185Z,39.72
2023-02-09T18:00:23.095Z,39.63
2023-02-09T18:02:25.726Z,41.38
2023-02-09T18:04:28.710Z,50.38
2023-02-09T18:06:36.070Z,30.75
2023-02-09T18:08:38.616Z,30.45
2023-02-09T18:10:41.189Z,31.27
2023-02-09T18:12:44.142Z,30.30
2023-02-09T18:14:46.741Z,29.90
2023-02-09T18:16:49.891Z,27.27
2023-02-09T18:18:52.462Z,29.42
2023-02-09T18:20:55.250Z,28.40
2023-02-09T18:22:59.138Z,29.35
2023-02-09T18:25:01.697Z,32.53
2023-02-09T18:27:04.675Z,28.15
2023-02-09T18:29:07.238Z,27.80
2023-02-09T18:31:15.276Z,27.73
2023-02-09T18:33:20.902Z,28.85
2023-02-09T18:35:25.701Z,29.23
2023-02-09T18:37:28.246Z,29.55
2023-02-09T18:39:34.480Z,29.20
2023-02-09T18:41:37.216Z,27.92
2023-02-09T18:43:40.204Z,27.20
2023-02-09T18:45:42.817Z,27.63
2023-02-09T18:47:46.498Z,28.20
2023-02-09T18:49:49.074Z,26.33
2023-02-09T18:51:52.107Z,28.55
2023-02-09T18:53:54.697Z,28.08
2023-02-09T18:55:58.621Z,29.65
2023-02-09T18:58:04.593Z,30.05
2023-02-09T19:00:08.915Z,31.13
2023-02-09T19:02:12.400Z,32.55
2023-02-09T19:04:14.993Z,31.67
2023-02-09T19:06:17.605Z,32.17
2023-02-09T19:08:20.190Z,31.63
2023-02-09T19:10:23.914Z,30.38
2023-02-09T19:12:28.417Z,31.10
2023-02-09T19:14:39.882Z,29.98
2023-02-09T19:16:42.832Z,31.20
2023-02-09T19:18:46.356Z,32.55
2023-02-09T19:20:49.016Z,32.28
2023-02-09T19:22:52.286Z,32.92
2023-02-09T19:24:56.731Z,32.17
2023-02-09T19:26:59.326Z,29.98
2023-02-09T19:29:03.231Z,32.00
2023-02-09T19:31:11.672Z,31.00
2023-02-09T19:33:14.397Z,30.50
2023-02-09T19:35:17.960Z,30.90
2023-02-09T19:37:21.796Z,30.15
2023-02-09T19:39:25.458Z,32.13
2023-02-09T19:41:28.243Z,32.15
2023-02-09T19:43:30.811Z,30.95
2023-02-09T19:45:37.465Z,31.17
2023-02-09T19:47:40.333Z,32.28
2023-02-09T19:49:42.932Z,31.13
2023-02-09T19:51:45.558Z,34.03
2023-02-09T19:53:48.191Z,34.78
2023-02-09T19:55:51.318Z,32.38
2023-02-09T19:57:53.890Z,34.58
2023-02-09T19:59:56.597Z,32.25
2023-02-09T20:02:00.545Z,33.00
2023-02-09T20:04:03.127Z,33.00
2023-02-09T20:06:08.575Z,35.08
2023-02-09T20:08:14.336Z,32.33
2023-02-09T20:10:16.929Z,35.25
2023-02-09T20:12:21.510Z,34.05
2023-02-09T20:14:24.664Z,31.90
2023-02-09T20:16:28.339Z,32.42
2023-02-09T20:18:32.301Z,32.95
2023-02-09T20:20:34.894Z,30.40
2023-02-09T20:22:37.640Z,35.50
2023-02-09T20:24:40.375Z,32.53
2023-02-09T20:26:44.327Z,32.75
2023-02-09T20:28:46.867Z,33.67
2023-02-09T20:30:49.588Z,32.97
2023-02-09T20:32:52.212Z,34.25
2023-02-09T20:34:56.180Z,35.33
2023-02-09T20:36:58.846Z,36.03
2023-02-09T20:39:01.407Z,37.42
2023-02-09T20:41:04.067Z,35.53
2023-02-09T20:43:24.360Z,34.63
2023-02-09T20:45:44.591Z,34.90
2023-02-09T20:47:47.244Z,34.60
2023-02-09T20:49:50.044Z,34.72
2023-02-09T20:51:54.004Z,33.22
2023-02-09T20:53:56.590Z,34.00
2023-02-09T20:55:59.369Z,34.88
2023-02-09T20:58:01.906Z,32.17
2023-02-09T21:00:09.075Z,34.85
2023-02-09T21:02:12.983Z,33.80
2023-02-09T21:04:15.584Z,33.92
2023-02-09T21:06:18.476Z,33.22
2023-02-09T21:08:22.908Z,34.90
2023-02-09T21:10:25.842Z,34.75
2023-02-09T21:12:28.423Z,32.35
2023-02-09T21:14:41.837Z,33.05
2023-02-09T21:16:45.511Z,30.85
2023-02-09T21:18:48.109Z,30.33
2023-02-09T21:20:50.856Z,31.45
2023-02-09T21:22:53.590Z,32.03
2023-02-09T21:24:57.488Z,32.08
2023-02-09T21:27:00.629Z,31.95
2023-02-09T21:29:03.172Z,30.75
2023-02-09T21:31:10.774Z,31.60
2023-02-09T21:33:13.286Z,33.08
2023-02-09T21:35:16.619Z,30.73
2023-02-09T21:37:19.723Z,32.45
2023-02-09T21:39:22.526Z,30.77
2023-02-09T21:41:45.160Z,30.27
2023-02-09T21:43:48.259Z,30.23
2023-02-09T21:45:50.877Z,30.67
2023-02-09T21:47:53.522Z,32.08
2023-02-09T21:49:56.367Z,31.70
2023-02-09T21:51:58.963Z,30.67
2023-02-09T21:54:01.660Z,32.10
2023-02-09T21:56:07.234Z,30.73
2023-02-09T21:58:11.108Z,28.40
2023-02-09T22:00:15.025Z,29.73
2023-02-09T22:02:19.352Z,30.23
2023-02-09T22:04:22.108Z,31.27
2023-02-09T22:06:25.292Z,29.73
2023-02-09T22:08:28.944Z,30.10
2023-02-09T22:10:31.489Z,30.88
2023-02-09T22:12:36.324Z,31.23
2023-02-09T22:14:40.262Z,31.40
2023-02-09T22:16:43.053Z,30.70
2023-02-09T22:18:45.634Z,31.95
2023-02-09T22:20:48.540Z,29.77
2023-02-09T22:22:51.227Z,30.42
2023-02-09T22:24:53.760Z,31.33
2023-02-09T22:26:56.311Z,30.73
2023-02-09T22:28:58.964Z,30.98
2023-02-09T22:31:07.576Z,30.20
2023-02-09T22:33:10.202Z,29.55
2023-02-09T22:35:12.730Z,29.52
2023-02-09T22:37:15.285Z,32.03
2023-02-09T22:39:17.821Z,30.13
2023-02-09T22:41:24.873Z,30.55
2023-02-09T22:43:27.834Z,31.50
2023-02-09T22:45:30.410Z,29.92
2023-02-09T22:47:35.028Z,30.80
2023-02-09T22:49:37.587Z,30.77
2023-02-09T22:51:40.214Z,28.88
2023-02-09T22:53:42.795Z,29.80
2023-02-09T22:55:48.269Z,30.13
2023-02-09T22:57:51.059Z,29.35
2023-02-09T22:59:53.665Z,30.33
2023-02-09T23:01:56.269Z,30.25
2023-02-09T23:04:00.330Z,30.63
2023-02-09T23:06:03.183Z,29.52
2023-02-09T23:08:06.198Z,30.38
2023-02-09T23:10:08.980Z,31.45
2023-02-09T23:12:11.551Z,31.25
2023-02-09T23:14:14.167Z,29.38
2023-02-09T23:16:19.322Z,29.48
2023-02-09T23:18:21.914Z,31.02
2023-02-09T23:20:25.808Z,28.67
2023-02-09T23:22:28.370Z,28.45
2023-02-09T23:24:30.886Z,28.83
2023-02-09T23:26:33.834Z,27.95
2023-02-09T23:28:36.479Z,28.33
2023-02-09T23:30:41.680Z,28.65
2023-02-09T23:32:44.219Z,27.80
2023-02-09T23:34:46.746Z,28.65
2023-02-09T23:36:50.900Z,27.27
2023-02-09T23:38:54.642Z,27.27
2023-02-09T23:40:57.171Z,28.02
2023-02-09T23:42:59.733Z,27.17
2023-02-09T23:45:02.276Z,26.67
2023-02-09T23:47:05.379Z,28.20
2023-02-09T23:49:07.939Z,28.55
2023-02-09T23:51:14.052Z,28.00
2023-02-09T23:53:17.946Z,27.75
2023-02-09T23:55:20.549Z,27.63
2023-02-09T23:57:23.566Z,26.77
2023-02-09T23:59:26.111Z,27.00
